createdAt,value
2023-02-11T00:01:37.960Z,10.37
2023-02-11T00:04:08.402Z,10.36
2023-02-11T00:06:38.203Z,10.35
2023-02-11T00:09:07.303Z,10.36
2023-02-11T00:11:36.459Z,10.36
2023-02-11T00:14:07.874Z,10.38
2023-02-11T00:16:37.904Z,10.38
2023-02-11T00:19:06.932Z,10.41
2023-02-11T00:21:35.984Z,10.41
2023-02-11T00:24:04.699Z,10.43
2023-02-11T00:26:35.486Z,10.46
2023-02-11T00:29:04.482Z,10.47
2023-02-11T00:31:34.143Z,10.48
2023-02-11T00:34:04.183Z,10.50
2023-02-11T00:36:33.162Z,10.54
2023-02-11T00:39:01.688Z,10.59
2023-02-11T00:41:30.407Z,10.58
2023-02-11T00:44:01.698Z,10.55
2023-02-11T00:46:30.604Z,10.54
2023-02-11T00:48:58.998Z,10.52
2023-02-11T00:51:30.103Z,10.52
2023-02-11T00:53:58.877Z,10.52
2023-02-11T00:56:27.358Z,10.53
2023-02-11T00:58:57.697Z,10.54
2023-02-11T01:01:26.414Z,10.53
2023-02-11T01:03:54.747Z,10.51
2023-02-11T01:06:25.176Z,10.51
2023-02-11T01:08:55.224Z,10.47
2023-02-11T01:11:25.283Z,10.47
2023-02-11T01:13:53.720Z,10.41
2023-02-11T01:16:23.629Z,10.42
2023-02-11T01:18:55.175Z,10.45
2023-02-11T01:21:23.587Z,10.44
2023-02-11T01:23:54.214Z,10.42
2023-02-11T01:26:23.284Z,10.33
2023-02-11T01:28:51.855Z,10.36
2023-02-11T01:31:20.256Z,10.39
2023-02-11T01:33:49.430Z,10.41
2023-02-11T01:36:17.897Z,10.43
2023-02-11T01:38:46.307Z,10.45
2023-02-11T01:41:16.168Z,10.46
2023-02-11T01:43:47.264Z,10.46
2023-02-11T01:46:35.033Z,10.47
2023-02-11T01:49:07.362Z,10.46
2023-02-11T01:51:40.621Z,10.48
2023-02-11T01:54:28.894Z,10.51
2023-02-11T01:57:18.655Z,10.51
2023-02-11T01:59:58.452Z,10.49
2023-02-11T02:02:35.800Z,10.47
2023-02-11T02:05:11.747Z,10.47
2023-02-11T02:07:47.307Z,10.44
2023-02-11T02:10:20.371Z,10.40
2023-02-11T02:12:50.438Z,10.39
2023-02-11T02:15:24.310Z,10.38
2023-02-11T02:18:00.893Z,10.28
2023-02-11T02:21:04.031Z,10.18
2023-02-11T02:23:56.003Z,10.07
2023-02-11T02:27:03.044Z,10.10
2023-02-11T02:30:17.875Z,10.08
2023-02-11T02:33:02.152Z,10.06
2023-02-11T02:35:41.651Z,10.09
2023-02-11T02:38:17.357Z,10.11
2023-02-11T02:40:50.351Z,10.10
2023-02-11T02:43:20.254Z,10.12
2023-02-11T02:45:49.010Z,10.11
2023-02-11T02:48:30.204Z,10.12
2023-02-11T02:51:14.420Z,10.13
2023-02-11T02:53:52.549Z,10.17
2023-02-11T02:56:32.819Z,10.18
2023-02-11T02:59:16.287Z,10.20
2023-02-11T03:01:52.613Z,10.18
2023-02-11T03:04:30.789Z,10.17
2023-02-11T03:07:04.303Z,10.18
2023-02-11T03:09:38.739Z,10.20
2023-02-11T03:12:09.032Z,10.18
2023-02-11T03:14:37.741Z,10.20
2023-02-11T03:17:07.793Z,10.21
2023-02-11T03:19:40.326Z,10.20
2023-02-11T03:22:09.939Z,10.14
2023-02-11T03:24:41.128Z,10.18
2023-02-11T03:27:16.423Z,10.18
2023-02-11T03:29:51.781Z,10.20
2023-02-11T03:32:28.111Z,10.24
2023-02-11T03:35:01.409Z,10.24
2023-02-11T03:37:35.542Z,10.24
2023-02-11T03:40:09.083Z,10.19
2023-02-11T03:42:41.886Z,10.23
2023-02-11T03:45:15.403Z,10.22
2023-02-11T03:47:50.122Z,10.21
2023-02-11T03:50:22.764Z,10.22
2023-02-11T03:52:52.394Z,10.21
2023-02-11T03:55:25.971Z,10.22
2023-02-11T03:57:54.793Z,10.21
2023-02-11T04:00:30.701Z,10.17
2023-02-11T04:02:59.407Z,10.16
2023-02-11T04:05:29.228Z,10.17
2023-02-11T04:07:57.754Z,10.20
2023-02-11T04:10:26.301Z,10.13
2023-02-11T04:12:55.098Z,10.08
2023-02-11T04:15:25.053Z,10.06
2023-02-11T04:17:53.683Z,10.04
2023-02-11T04:20:22.379Z,10.03
2023-02-11T04:22:52.776Z,10.02
2023-02-11T04:25:21.613Z,10.00
2023-02-11T04:27:49.944Z,10.00
2023-02-11T04:30:19.077Z,9.99
2023-02-11T04:32:47.433Z,10.02
2023-02-11T04:35:15.813Z,10.02
2023-02-11T04:37:44.481Z,10.02
2023-02-11T04:40:14.739Z,10.05
2023-02-11T04:42:43.117Z,10.09
2023-02-11T04:45:12.258Z,10.13
2023-02-11T04:47:40.641Z,10.16
2023-02-11T04:50:09.512Z,10.16
2023-02-11T04:52:38.443Z,10.13
2023-02-11T04:55:07.912Z,10.11
2023-02-11T04:57:37.624Z,10.09
2023-02-11T05:00:07.776Z,10.13
2023-02-11T05:02:36.143Z,10.10
2023-02-11T05:05:04.651Z,10.09
2023-02-11T05:07:33.542Z,10.08
2023-02-11T05:10:01.942Z,10.09
2023-02-11T05:12:30.624Z,10.10
2023-02-11T05:15:00.767Z,10.11
2023-02-11T05:17:29.190Z,10.09
2023-02-11T05:19:57.537Z,10.09
2023-02-11T05:22:26.002Z,10.06
2023-02-11T05:24:54.660Z,10.09
2023-02-11T05:27:23.321Z,10.08
2023-02-11T05:29:51.907Z,10.01
2023-02-11T05:32:21.993Z,9.98
2023-02-11T05:34:50.528Z,9.89
2023-02-11T05:37:19.258Z,9.88
2023-02-11T05:39:47.733Z,9.85
2023-02-11T05:42:16.127Z,9.85
2023-02-11T05:44:44.507Z,9.83
2023-02-11T05:47:13.212Z,9.84
2023-02-11T05:49:43.245Z,9.87
2023-02-11T05:52:12.040Z,9.84
2023-02-11T05:54:40.746Z,9.77
2023-02-11T05:57:09.238Z,9.76
2023-02-11T05:59:37.601Z,9.80
2023-02-11T06:02:08.020Z,9.83
2023-02-11T06:04:36.799Z,9.83
2023-02-11T06:07:06.564Z,9.79
2023-02-11T06:09:35.516Z,9.78
2023-02-11T06:12:03.814Z,9.73
2023-02-11T06:14:34.355Z,9.71
2023-02-11T06:17:03.360Z,9.71
2023-02-11T06:19:31.954Z,9.69
2023-02-11T06:22:01.077Z,9.65
2023-02-11T06:24:51.339Z,9.64
2023-02-11T06:27:19.663Z,9.63
2023-02-11T06:29:48.249Z,9.64
2023-02-11T06:32:35.683Z,9.63
2023-02-11T06:35:05.103Z,9.64
2023-02-11T06:37:34.932Z,9.61
2023-02-11T06:40:05.219Z,9.63
2023-02-11T06:42:34.671Z,9.63
2023-02-11T06:45:02.985Z,9.64
2023-02-11T06:47:31.536Z,9.65
2023-02-11T06:50:00.566Z,9.63
2023-02-11T06:52:29.077Z,9.61
2023-02-11T06:54:57.527Z,9.58
2023-02-11T06:57:27.752Z,9.59
2023-02-11T06:59:56.142Z,9.58
2023-02-11T07:02:24.970Z,9.59
2023-02-11T07:04:53.914Z,9.58
2023-02-11T07:07:22.633Z,9.57
2023-02-11T07:09:51.102Z,9.55
2023-02-11T07:12:19.738Z,9.53
2023-02-11T07:14:49.836Z,9.53
2023-02-11T07:17:18.154Z,9.52
2023-02-11T07:19:46.846Z,9.50
2023-02-11T07:22:15.336Z,9.48
2023-02-11T07:24:43.875Z,9.49
2023-02-11T07:27:12.322Z,9.49
2023-02-11T07:29:40.740Z,9.49
2023-02-11T07:32:10.940Z,9.48
2023-02-11T07:34:39.471Z,9.47
2023-02-11T07:37:07.811Z,9.44
2023-02-11T07:39:36.745Z,9.41
2023-02-11T07:42:06.986Z,9.40
2023-02-11T07:44:37.045Z,9.36
2023-02-11T07:47:05.648Z,9.35
2023-02-11T07:49:35.935Z,9.34
2023-02-11T07:52:04.531Z,9.35
2023-02-11T07:54:33.386Z,9.31
2023-02-11T07:57:02.104Z,9.31
2023-02-11T07:59:30.549Z,9.32
2023-02-11T08:01:59.105Z,9.33
2023-02-11T08:04:28.099Z,9.33
2023-02-11T08:06:59.357Z,9.28
2023-02-11T08:09:27.846Z,9.27
2023-02-11T08:11:56.247Z,9.32
2023-02-11T08:14:25.469Z,9.37
2023-02-11T08:16:53.940Z,9.46
2023-02-11T08:19:22.323Z,9.51
2023-02-11T08:21:51.060Z,9.57
2023-02-11T08:24:21.060Z,9.61
2023-02-11T08:26:49.377Z,9.58
2023-02-11T08:29:18.409Z,9.58
2023-02-11T08:31:50.219Z,9.62
2023-02-11T08:34:20.205Z,9.64
2023-02-11T08:36:49.884Z,9.70
2023-02-11T08:39:21.255Z,9.78
2023-02-11T08:41:51.002Z,9.78
2023-02-11T08:44:20.156Z,9.77
2023-02-11T08:46:49.455Z,9.77
2023-02-11T08:49:18.216Z,9.84
2023-02-11T08:51:47.584Z,9.90
2023-02-11T08:54:16.821Z,9.97
2023-02-11T08:56:47.868Z,10.01
2023-02-11T08:59:17.909Z,10.10
2023-02-11T09:01:47.443Z,10.16
2023-02-11T09:04:16.164Z,10.24
2023-02-11T09:06:44.725Z,10.33
2023-02-11T09:09:14.817Z,10.46
2023-02-11T09:11:45.388Z,10.58
2023-02-11T09:14:21.125Z,10.66
2023-02-11T09:16:50.511Z,10.73
2023-02-11T09:19:19.498Z,10.81
2023-02-11T09:21:48.159Z,11.38
2023-02-11T09:24:16.656Z,11.60
2023-02-11T09:26:45.572Z,11.63
2023-02-11T09:29:14.414Z,11.59
2023-02-11T09:31:44.155Z,11.60
2023-02-11T09:34:13.174Z,11.75
2023-02-11T09:36:42.102Z,12.03
2023-02-11T09:39:14.858Z,12.14
2023-02-11T09:42:24.958Z,12.18
2023-02-11T09:44:54.299Z,12.48
2023-02-11T09:47:32.024Z,12.95
2023-02-11T09:50:04.842Z,13.49
2023-02-11T09:52:41.371Z,14.20
2023-02-11T09:55:20.380Z,14.11
2023-02-11T09:57:49.656Z,13.84
2023-02-11T10:00:22.953Z,13.56
2023-02-11T10:03:16.244Z,13.80
2023-02-11T10:05:59.678Z,13.64
2023-02-11T10:08:36.333Z,13.37
2023-02-11T10:11:22.679Z,13.24
2023-02-11T10:14:08.206Z,14.03
2023-02-11T10:16:54.593Z,14.65
2023-02-11T10:19:40.031Z,14.56
2023-02-11T10:22:13.948Z,14.49
2023-02-11T10:24:44.717Z,14.33
2023-02-11T10:27:17.806Z,14.47
2023-02-11T10:29:52.470Z,14.97
2023-02-11T10:32:36.805Z,14.91
2023-02-11T10:35:16.493Z,15.11
2023-02-11T10:37:45.441Z,15.32
2023-02-11T10:40:16.062Z,15.22
2023-02-11T10:42:48.460Z,15.04
2023-02-11T10:45:18.919Z,15.06
2023-02-11T10:47:47.552Z,15.24
2023-02-11T10:50:25.946Z,15.06
2023-02-11T10:53:14.655Z,14.42
2023-02-11T10:55:56.022Z,14.27
2023-02-11T10:58:33.403Z,14.20
2023-02-11T11:01:22.439Z,14.07
2023-02-11T11:03:57.137Z,13.93
2023-02-11T11:06:39.751Z,14.02
2023-02-11T11:09:07.840Z,13.67
2023-02-11T11:11:53.705Z,13.38
2023-02-11T11:14:26.359Z,13.55
2023-02-11T11:16:55.574Z,13.89
2023-02-11T11:19:26.029Z,14.06
2023-02-11T11:21:57.785Z,14.13
2023-02-11T11:24:30.520Z,13.92
2023-02-11T11:27:01.101Z,13.67
2023-02-11T11:29:36.326Z,13.40
2023-02-11T11:32:08.774Z,13.55
2023-02-11T11:34:38.700Z,13.42
2023-02-11T11:37:15.376Z,13.42
2023-02-11T11:39:44.213Z,13.37
2023-02-11T11:42:27.383Z,13.47
2023-02-11T11:45:00.845Z,13.41
2023-02-11T11:47:37.300Z,13.61
2023-02-11T11:50:32.009Z,13.55
2023-02-11T11:53:10.697Z,13.80
2023-02-11T11:55:43.448Z,13.84
2023-02-11T11:58:18.046Z,14.02
2023-02-11T12:00:55.734Z,14.03
2023-02-11T12:03:48.885Z,14.33
2023-02-11T12:06:32.279Z,14.31
2023-02-11T12:09:14.676Z,14.16
2023-02-11T12:11:55.043Z,13.88
2023-02-11T12:14:35.235Z,13.99
2023-02-11T12:17:10.810Z,13.65
2023-02-11T12:20:02.930Z,13.85
2023-02-11T12:22:50.820Z,13.79
2023-02-11T12:25:29.407Z,13.77
2023-02-11T12:28:08.245Z,13.79
2023-02-11T12:30:58.750Z,13.71
2023-02-11T12:33:42.343Z,13.75
2023-02-11T12:36:19.962Z,13.56
2023-02-11T12:39:04.824Z,13.44
2023-02-11T12:42:21.058Z,13.17
2023-02-11T12:45:06.079Z,12.95
2023-02-11T12:47:43.948Z,12.93
2023-02-11T12:50:24.496Z,12.84
2023-02-11T12:53:08.545Z,12.89
2023-02-11T12:55:41.490Z,12.84
2023-02-11T12:58:17.569Z,12.77
2023-02-11T13:00:51.239Z,12.78
2023-02-11T13:03:26.527Z,12.89
2023-02-11T13:05:58.379Z,13.10
2023-02-11T13:08:32.092Z,13.11
2023-02-11T13:11:03.720Z,13.39
2023-02-11T13:13:38.509Z,13.53
2023-02-11T13:16:09.621Z,13.72
2023-02-11T13:18:53.520Z,13.76
2023-02-11T13:21:49.599Z,14.09
2023-02-11T13:24:25.881Z,13.93
2023-02-11T13:27:06.338Z,13.79
2023-02-11T13:29:51.760Z,13.89
2023-02-11T13:32:20.205Z,14.05
2023-02-11T13:35:02.015Z,14.26
2023-02-11T13:37:38.342Z,14.04
2023-02-11T13:40:21.720Z,14.00
2023-02-11T13:42:53.965Z,14.06
2023-02-11T13:45:37.507Z,14.23
2023-02-11T13:48:24.742Z,14.20
2023-02-11T13:50:58.028Z,13.98
2023-02-11T13:53:27.622Z,14.10
2023-02-11T13:56:08.443Z,14.07
2023-02-11T13:58:40.126Z,14.00
2023-02-11T14:01:10.489Z,13.94
2023-02-11T14:03:57.515Z,13.72
2023-02-11T14:07:02.236Z,13.77
2023-02-11T14:09:42.030Z,13.78
2023-02-11T14:12:32.809Z,13.51
2023-02-11T14:15:17.712Z,13.29
2023-02-11T14:17:47.943Z,13.33
2023-02-11T14:20:44.124Z,13.23
2023-02-11T14:23:27.281Z,13.26
2023-02-11T14:26:21.218Z,13.16
2023-02-11T14:28:53.109Z,12.98
2023-02-11T14:31:25.958Z,13.08
2023-02-11T14:34:09.041Z,13.16
2023-02-11T14:36:56.000Z,13.14
2023-02-11T14:39:38.705Z,13.08
2023-02-11T14:42:07.785Z,12.87
2023-02-11T14:44:36.722Z,12.83
2023-02-11T14:47:05.039Z,12.92
2023-02-11T14:49:39.361Z,13.10
2023-02-11T14:52:17.149Z,13.11
2023-02-11T14:54:46.654Z,13.15
2023-02-11T14:57:17.157Z,13.21
2023-02-11T14:59:58.904Z,13.09
2023-02-11T15:02:32.158Z,13.06
2023-02-11T15:05:20.137Z,12.89
2023-02-11T15:07:50.929Z,12.96
2023-02-11T15:10:29.813Z,12.98
2023-02-11T15:13:00.335Z,13.03
2023-02-11T15:15:29.415Z,12.88
2023-02-11T15:18:01.929Z,12.88
2023-02-11T15:20:35.966Z,12.90
2023-02-11T15:23:08.689Z,12.86
2023-02-11T15:25:44.512Z,12.73
2023-02-11T15:28:23.185Z,12.58
2023-02-11T15:30:59.696Z,12.47
2023-02-11T15:33:30.130Z,12.55
2023-02-11T15:36:01.027Z,12.63
2023-02-11T15:38:30.463Z,12.73
2023-02-11T15:41:01.051Z,12.69
2023-02-11T15:43:43.090Z,12.68
2023-02-11T15:46:13.259Z,12.65
2023-02-11T15:48:45.339Z,12.71
2023-02-11T15:51:28.788Z,12.60
2023-02-11T15:53:59.087Z,12.54
2023-02-11T15:56:32.950Z,12.62
2023-02-11T15:59:10.311Z,12.58
2023-02-11T16:01:40.197Z,12.56
2023-02-11T16:04:08.947Z,12.74
2023-02-11T16:06:40.386Z,12.63
2023-02-11T16:09:26.632Z,12.50
2023-02-11T16:11:58.162Z,12.38
2023-02-11T16:14:32.399Z,12.35
2023-02-11T16:17:03.618Z,12.27
2023-02-11T16:19:33.278Z,12.19
2023-02-11T16:22:08.923Z,12.07
2023-02-11T16:24:38.962Z,12.01
2023-02-11T16:27:09.795Z,11.99
2023-02-11T16:29:38.484Z,11.93
2023-02-11T16:32:09.701Z,12.05
2023-02-11T16:34:38.382Z,12.04
2023-02-11T16:37:08.864Z,12.03
2023-02-11T16:39:37.033Z,12.01
2023-02-11T16:42:07.641Z,11.98
2023-02-11T16:44:36.433Z,12.00
2023-02-11T16:47:06.069Z,11.99
2023-02-11T16:49:38.321Z,11.98
2023-02-11T16:52:14.137Z,11.94
2023-02-11T16:54:42.884Z,11.91
2023-02-11T16:57:15.815Z,11.84
2023-02-11T16:59:44.053Z,11.70
2023-02-11T17:02:16.795Z,11.67
2023-02-11T17:04:45.845Z,11.52
2023-02-11T17:07:15.661Z,11.33
2023-02-11T17:09:43.896Z,11.24
2023-02-11T17:12:12.047Z,11.19
2023-02-11T17:14:40.282Z,11.08
2023-02-11T17:17:08.390Z,11.00
2023-02-11T17:19:36.832Z,10.77
2023-02-11T17:22:05.317Z,10.70
2023-02-11T17:24:35.038Z,10.60
2023-02-11T17:27:03.266Z,10.49
2023-02-11T17:29:32.420Z,10.34
2023-02-11T17:32:00.699Z,10.28
2023-02-11T17:34:29.684Z,10.24
2023-02-11T17:37:00.240Z,10.17
2023-02-11T17:39:28.861Z,10.04
2023-02-11T17:41:58.516Z,10.00
2023-02-11T17:44:26.961Z,9.97
2023-02-11T17:46:55.189Z,9.90
2023-02-11T17:49:23.568Z,9.81
2023-02-11T17:51:51.761Z,9.77
2023-02-11T17:54:21.106Z,9.69
2023-02-11T17:56:50.951Z,9.65
2023-02-11T17:59:21.515Z,9.60
2023-02-11T18:01:50.251Z,9.49
2023-02-11T18:04:20.325Z,9.43
2023-02-11T18:06:50.387Z,9.35
2023-02-11T18:09:18.883Z,9.33
2023-02-11T18:11:48.514Z,9.21
2023-02-11T18:14:16.840Z,9.19
2023-02-11T18:16:47.595Z,9.07
2023-02-11T18:19:16.186Z,9.08
2023-02-11T18:21:44.776Z,9.06
2023-02-11T18:24:13.084Z,9.00
2023-02-11T18:26:42.105Z,8.91
2023-02-11T18:29:13.675Z,8.96
2023-02-11T18:31:42.387Z,8.94
2023-02-11T18:34:13.158Z,8.88
2023-02-11T18:36:41.536Z,8.88
2023-02-11T18:39:10.296Z,8.88
2023-02-11T18:41:40.829Z,8.79
2023-02-11T18:44:09.597Z,8.76
2023-02-11T18:46:38.260Z,8.74
2023-02-11T18:49:06.750Z,8.69
2023-02-11T18:51:36.451Z,8.61
2023-02-11T18:54:04.983Z,8.62
2023-02-11T18:56:33.360Z,8.61
2023-02-11T18:59:02.632Z,8.56
2023-02-11T19:01:33.880Z,8.55
2023-02-11T19:04:05.577Z,8.50
2023-02-11T19:07:05.509Z,8.47
2023-02-11T20:02:12.166Z,7.66
2023-02-11T20:04:40.934Z,7.62
2023-02-11T20:10:38.609Z,7.59
2023-02-11T20:16:11.812Z,7.63
2023-02-11T20:19:06.505Z,7.63
2023-02-11T20:21:47.746Z,7.57
2023-02-11T20:25:19.278Z,7.62
2023-02-11T20:28:37.117Z,7.65
2023-02-11T21:04:18.936Z,7.47
2023-02-11T21:14:44.899Z,7.14
2023-02-11T21:40:56.685Z,7.04
2023-02-11T21:46:26.362Z,7.16
2023-02-11T21:48:55.128Z,7.13
2023-02-11T21:51:25.306Z,7.18
2023-02-11T21:54:01.434Z,7.19
2023-02-11T21:56:34.475Z,7.17
2023-02-11T21:59:03.846Z,7.15
2023-02-11T22:01:35.452Z,7.14
2023-02-11T22:04:04.362Z,7.04
2023-02-11T22:06:36.951Z,6.99
2023-02-11T22:09:07.771Z,6.88
2023-02-11T22:11:36.942Z,6.87
2023-02-11T22:14:07.176Z,6.86
2023-02-11T22:16:35.944Z,6.86
2023-02-11T22:19:07.534Z,6.85
2023-02-11T22:21:36.307Z,6.77
2023-02-11T22:24:09.285Z,6.71
2023-02-11T22:26:39.883Z,6.72
2023-02-11T22:29:08.780Z,6.68
2023-02-11T22:31:37.509Z,6.62
2023-02-11T22:34:20.225Z,6.59
2023-02-11T22:36:58.177Z,6.50
2023-02-11T22:39:26.973Z,6.34
2023-02-11T22:41:57.651Z,6.27
2023-02-11T22:44:27.351Z,6.27
2023-02-11T22:46:58.663Z,6.20
2023-02-11T22:49:27.066Z,6.18
2023-02-11T22:51:56.725Z,6.18
2023-02-11T22:54:25.228Z,6.19
2023-02-11T22:56:54.438Z,6.15
2023-02-11T22:59:24.429Z,6.20
2023-02-11T23:01:52.966Z,6.17
2023-02-11T23:04:21.893Z,6.21
2023-02-11T23:06:50.632Z,6.25
2023-02-11T23:09:19.468Z,6.24
2023-02-11T23:11:49.529Z,6.18
2023-02-11T23:14:18.243Z,6.19
2023-02-11T23:16:52.670Z,6.18
2023-02-11T23:19:22.056Z,6.20
2023-02-11T23:21:52.977Z,6.18
2023-02-11T23:24:21.621Z,6.16
2023-02-11T23:26:51.656Z,6.14
2023-02-11T23:29:21.432Z,6.13
2023-02-11T23:31:52.768Z,6.07
2023-02-11T23:34:25.608Z,6.04
2023-02-11T23:36:54.966Z,6.03
2023-02-11T23:39:26.204Z,6.00
2023-02-11T23:41:59.612Z,5.88
2023-02-11T23:44:29.077Z,5.89
2023-02-11T23:47:38.171Z,5.99
2023-02-11T23:50:18.892Z,6.00
2023-02-11T23:53:09.850Z,5.98
2023-02-11T23:55:41.378Z,5.96
2023-02-11T23:58:14.845Z,5.94
